createdAt,value
2023-02-12T00:01:29.329Z,17.83
2023-02-12T00:03:59.268Z,19.55
2023-02-12T00:06:28.209Z,19.23
2023-02-12T00:09:00.266Z,16.60
2023-02-12T00:11:30.507Z,15.02
2023-02-12T00:13:59.771Z,15.10
2023-02-12T00:16:29.885Z,12.57
2023-02-12T00:19:01.332Z,15.20
2023-02-12T00:21:29.719Z,14.23
2023-02-12T00:23:58.761Z,10.65
2023-02-12T00:26:27.096Z,13.43
2023-02-12T00:28:56.241Z,9.45
2023-02-12T00:31:27.056Z,11.20
2023-02-12T00:34:00.391Z,10.98
2023-02-12T00:36:31.256Z,15.45
2023-02-12T00:39:01.385Z,13.77
2023-02-12T00:41:30.165Z,16.30
2023-02-12T00:43:59.021Z,12.70
2023-02-12T00:46:28.278Z,12.30
2023-02-12T00:48:56.672Z,17.30
2023-02-12T00:51:26.279Z,13.30
2023-02-12T00:53:54.652Z,14.35
2023-02-12T00:56:22.941Z,12.73
2023-02-12T00:58:51.375Z,13.25
2023-02-12T01:01:20.093Z,11.10
2023-02-12T01:03:48.518Z,10.15
2023-02-12T01:06:16.800Z,10.55
2023-02-12T01:08:52.526Z,8.93
2023-02-12T01:11:21.210Z,9.65
2023-02-12T01:13:50.197Z,8.82
2023-02-12T01:16:22.744Z,6.90
2023-02-12T01:18:55.695Z,7.20
2023-02-12T01:21:27.304Z,7.03
2023-02-12T01:23:58.557Z,7.72
2023-02-12T01:26:28.173Z,7.00
2023-02-12T01:28:58.866Z,6.40
2023-02-12T01:31:30.772Z,9.73
2023-02-12T01:34:01.555Z,7.50
2023-02-12T01:39:02.981Z,10.63
2023-02-12T01:41:34.644Z,8.93
2023-02-12T01:44:14.200Z,8.63
2023-02-12T01:46:44.341Z,8.18
2023-02-12T01:49:19.466Z,10.40
2023-02-12T01:51:51.700Z,10.40
2023-02-12T01:54:25.734Z,9.23
2023-02-12T01:56:54.538Z,9.25
2023-02-12T01:59:23.719Z,9.65
2023-02-12T02:01:52.146Z,8.05
2023-02-12T02:04:28.436Z,7.20
2023-02-12T02:06:59.956Z,9.20
2023-02-12T02:09:30.990Z,7.90
2023-02-12T02:12:17.257Z,7.80
2023-02-12T02:14:46.636Z,8.35
2023-02-12T02:17:30.686Z,7.05
2023-02-12T02:20:50.431Z,7.07
2023-02-12T02:24:19.509Z,7.15
2023-02-12T02:27:16.897Z,6.88
2023-02-12T02:30:19.458Z,6.90
2023-02-12T02:32:57.294Z,7.32
2023-02-12T02:35:34.301Z,7.78
2023-02-12T02:38:22.099Z,7.00
2023-02-12T02:40:56.772Z,7.57
2023-02-12T02:43:30.918Z,7.57
2023-02-12T02:46:07.235Z,9.27
2023-02-12T02:48:40.093Z,7.05
2023-02-12T02:51:14.358Z,6.50
2023-02-12T02:53:49.627Z,6.82
2023-02-12T02:56:23.108Z,7.45
2023-02-12T02:58:56.696Z,6.30
2023-02-12T03:01:31.214Z,5.72
2023-02-12T03:04:05.826Z,7.70
2023-02-12T03:06:42.162Z,6.03
2023-02-12T03:09:22.879Z,6.00
2023-02-12T03:11:51.959Z,5.97
2023-02-12T03:14:26.102Z,5.32
2023-02-12T03:17:00.582Z,5.40
2023-02-12T03:19:33.502Z,5.30
2023-02-12T03:22:07.576Z,7.05
2023-02-12T03:24:42.516Z,5.47
2023-02-12T03:27:15.041Z,5.95
2023-02-12T03:29:43.525Z,5.30
2023-02-12T03:32:32.108Z,5.40
2023-02-12T03:35:11.472Z,5.78
2023-02-12T03:37:46.845Z,6.15
2023-02-12T03:40:20.453Z,5.57
2023-02-12T03:42:56.723Z,5.72
2023-02-12T03:45:39.972Z,5.25
2023-02-12T03:48:14.006Z,5.93
2023-02-12T03:50:50.997Z,8.10
2023-02-12T03:53:19.375Z,6.63
2023-02-12T03:55:53.339Z,7.13
2023-02-12T03:58:28.509Z,6.35
2023-02-12T04:00:57.871Z,5.70
2023-02-12T04:03:28.087Z,6.10
2023-02-12T04:05:56.630Z,7.78
2023-02-12T04:08:27.520Z,8.25
2023-02-12T04:11:09.146Z,8.70
2023-02-12T04:13:48.298Z,8.90
2023-02-12T04:16:26.801Z,8.48
2023-02-12T04:18:57.061Z,9.00
2023-02-12T04:21:45.681Z,8.52
2023-02-12T04:24:20.931Z,8.90
2023-02-12T04:26:55.892Z,8.73
2023-02-12T04:29:33.984Z,9.63
2023-02-12T04:32:09.022Z,8.52
2023-02-12T04:34:46.933Z,8.40
2023-02-12T04:37:19.531Z,9.02
2023-02-12T04:39:49.536Z,8.88
2023-02-12T04:42:18.068Z,9.20
2023-02-12T04:44:46.592Z,9.02
2023-02-12T04:47:16.382Z,10.00
2023-02-12T04:49:46.152Z,10.90
2023-02-12T04:52:14.462Z,10.13
2023-02-12T04:54:42.697Z,11.75
2023-02-12T04:57:11.100Z,12.07
2023-02-12T04:59:39.426Z,13.02
2023-02-12T05:02:07.645Z,11.82
2023-02-12T05:04:35.952Z,11.48
2023-02-12T05:07:05.615Z,11.05
2023-02-12T05:09:34.130Z,12.47
2023-02-12T05:12:02.356Z,12.35
2023-02-12T05:14:30.765Z,11.30
2023-02-12T05:16:59.006Z,12.02
2023-02-12T05:19:27.395Z,12.43
2023-02-12T05:21:55.684Z,10.95
2023-02-12T05:24:25.926Z,10.90
2023-02-12T05:26:54.248Z,10.35
2023-02-12T05:29:22.658Z,11.13
2023-02-12T05:31:51.130Z,10.65
2023-02-12T05:34:20.286Z,12.15
2023-02-12T05:36:48.596Z,14.35
2023-02-12T05:39:16.785Z,12.18
2023-02-12T05:41:46.508Z,12.57
2023-02-12T05:44:15.205Z,13.15
2023-02-12T05:46:44.301Z,12.35
2023-02-12T05:49:12.790Z,11.45
2023-02-12T05:51:41.142Z,11.82
2023-02-12T05:54:09.610Z,12.70
2023-02-12T05:56:43.054Z,14.00
2023-02-12T05:59:18.128Z,13.43
2023-02-12T06:01:48.393Z,11.50
2023-02-12T06:04:20.599Z,11.15
2023-02-12T06:06:49.089Z,11.93
2023-02-12T06:09:17.477Z,11.93
2023-02-12T06:11:45.970Z,11.57
2023-02-12T06:14:19.472Z,11.40
2023-02-12T06:16:50.039Z,11.20
2023-02-12T06:19:19.420Z,11.77
2023-02-12T06:21:47.960Z,11.70
2023-02-12T06:24:17.469Z,12.10
2023-02-12T06:26:46.791Z,11.80
2023-02-12T06:29:16.438Z,13.75
2023-02-12T06:31:44.923Z,12.70
2023-02-12T06:34:16.715Z,12.95
2023-02-12T06:36:47.145Z,13.50
2023-02-12T06:39:18.127Z,13.30
2023-02-12T06:41:46.513Z,14.20
2023-02-12T06:44:16.268Z,14.88
2023-02-12T06:46:44.577Z,13.33
2023-02-12T06:49:14.575Z,12.73
2023-02-12T06:51:43.318Z,14.32
2023-02-12T06:54:16.005Z,11.88
2023-02-12T06:56:44.750Z,12.02
2023-02-12T06:59:17.585Z,14.15
2023-02-12T07:01:46.076Z,13.63
2023-02-12T07:04:14.984Z,13.75
2023-02-12T07:06:43.377Z,11.90
2023-02-12T07:09:11.737Z,12.40
2023-02-12T07:11:40.165Z,12.52
2023-02-12T07:14:08.829Z,14.55
2023-02-12T07:16:38.850Z,19.25
2023-02-12T07:19:07.207Z,16.00
2023-02-12T07:21:35.486Z,17.27
2023-02-12T07:24:03.886Z,15.27
2023-02-12T07:26:32.222Z,15.73
2023-02-12T07:29:00.539Z,17.55
2023-02-12T07:31:29.386Z,18.42
2023-02-12T07:34:01.202Z,18.38
2023-02-12T07:36:32.862Z,16.20
2023-02-12T07:39:01.665Z,17.45
2023-02-12T07:41:32.173Z,16.15
2023-02-12T07:44:03.714Z,15.18
2023-02-12T07:46:35.246Z,15.40
2023-02-12T07:49:07.705Z,14.93
2023-02-12T07:51:37.513Z,15.18
2023-02-12T07:54:06.353Z,15.63
2023-02-12T07:56:37.569Z,15.07
2023-02-12T07:59:08.335Z,17.95
2023-02-12T08:04:10.407Z,18.88
2023-02-12T08:06:41.906Z,20.58
2023-02-12T08:09:12.710Z,20.00
2023-02-12T08:14:14.418Z,19.25
2023-02-12T08:16:44.760Z,17.70
2023-02-12T08:19:19.724Z,17.08
2023-02-12T08:21:52.017Z,19.13
2023-02-12T08:24:21.991Z,16.75
2023-02-12T08:26:50.950Z,17.75
2023-02-12T08:29:22.797Z,17.70
2023-02-12T08:31:52.664Z,17.08
2023-02-12T08:34:25.521Z,16.83
2023-02-12T08:36:55.836Z,16.35
2023-02-12T08:39:25.643Z,17.65
2023-02-12T08:41:56.379Z,19.07
2023-02-12T08:44:25.392Z,16.45
2023-02-12T08:46:55.565Z,19.17
2023-02-12T08:49:29.207Z,15.95
2023-02-12T08:52:01.654Z,16.33
2023-02-12T08:54:32.441Z,14.68
2023-02-12T08:59:32.070Z,14.77
2023-02-12T09:02:00.752Z,15.20
2023-02-12T09:04:31.132Z,16.65
2023-02-12T09:06:59.786Z,15.30
2023-02-12T09:09:28.160Z,17.58
2023-02-12T09:11:56.474Z,16.95
2023-02-12T09:14:25.325Z,17.75
2023-02-12T09:16:54.790Z,16.90
2023-02-12T09:19:23.291Z,16.67
2023-02-12T09:21:57.473Z,15.73
2023-02-12T09:24:27.551Z,19.73
2023-02-12T09:26:56.185Z,16.48
2023-02-12T09:29:24.531Z,16.20
2023-02-12T09:31:53.148Z,20.83
2023-02-12T09:34:21.592Z,21.05
2023-02-12T09:36:49.907Z,19.27
2023-02-12T09:39:19.929Z,16.35
2023-02-12T09:42:29.457Z,17.02
2023-02-12T09:45:06.452Z,16.83
2023-02-12T09:47:44.915Z,18.83
2023-02-12T09:50:32.938Z,17.85
2023-02-12T09:53:01.663Z,19.33
2023-02-12T09:55:34.164Z,19.55
2023-02-12T09:58:05.597Z,19.60
2023-02-12T10:00:34.059Z,19.08
2023-02-12T10:03:05.916Z,20.38
2023-02-12T10:05:40.664Z,19.52
2023-02-12T10:08:33.519Z,21.08
2023-02-12T10:11:20.816Z,21.00
2023-02-12T10:14:00.431Z,19.92
2023-02-12T10:16:44.993Z,18.70
2023-02-12T10:19:31.102Z,20.70
2023-02-12T10:22:09.834Z,18.83
2023-02-12T10:25:00.769Z,20.58
2023-02-12T10:30:19.948Z,19.38
2023-02-12T10:32:53.044Z,20.27
2023-02-12T10:35:24.220Z,20.70
2023-02-12T10:37:59.509Z,20.48
2023-02-12T10:40:32.699Z,18.00
2023-02-12T10:43:03.603Z,18.90
2023-02-12T10:45:35.326Z,19.58
2023-02-12T10:48:11.549Z,20.30
2023-02-12T10:50:51.531Z,18.65
2023-02-12T10:53:24.100Z,20.70
2023-02-12T10:56:12.773Z,20.17
2023-02-12T10:58:52.683Z,19.23
2023-02-12T11:01:26.890Z,19.67
2023-02-12T11:03:56.512Z,18.13
2023-02-12T11:06:28.785Z,20.92
2023-02-12T11:08:58.853Z,19.02
2023-02-12T11:11:31.107Z,19.92
2023-02-12T11:14:06.396Z,19.33
2023-02-12T11:16:37.246Z,17.40
2023-02-12T11:19:08.771Z,18.80
2023-02-12T11:21:37.509Z,17.38
2023-02-12T11:24:33.968Z,22.20
2023-02-12T11:27:23.398Z,17.27
2023-02-12T11:30:17.346Z,20.15
2023-02-12T11:32:46.581Z,19.00
2023-02-12T11:35:23.845Z,21.60
2023-02-12T11:37:55.547Z,19.77
2023-02-12T11:40:27.845Z,19.48
2023-02-12T11:42:58.889Z,21.23
2023-02-12T11:45:35.429Z,21.35
2023-02-12T11:48:04.529Z,20.55
2023-02-12T11:50:34.239Z,20.08
2023-02-12T11:53:06.933Z,20.13
2023-02-12T11:55:39.001Z,20.23
2023-02-12T11:58:18.112Z,19.58
2023-02-12T12:00:53.041Z,21.50
2023-02-12T12:03:26.674Z,19.80
2023-02-12T12:06:02.356Z,18.38
2023-02-12T12:08:38.415Z,21.33
2023-02-12T12:11:14.529Z,21.35
2023-02-12T12:13:51.489Z,18.65
2023-02-12T12:16:50.440Z,17.33
2023-02-12T12:19:43.218Z,21.33
2023-02-12T12:22:22.272Z,18.73
2023-02-12T12:24:58.831Z,17.73
2023-02-12T12:28:04.155Z,16.70
2023-02-12T12:31:04.675Z,16.40
2023-02-12T12:33:42.736Z,16.75
2023-02-12T12:36:56.731Z,15.30
2023-02-12T12:39:36.102Z,16.42
2023-02-12T12:42:42.065Z,15.38
2023-02-12T12:45:41.865Z,14.07
2023-02-12T12:48:27.145Z,15.02
2023-02-12T12:51:17.537Z,16.63
2023-02-12T12:54:00.288Z,18.60
2023-02-12T12:56:47.189Z,17.48
2023-02-12T12:59:59.165Z,21.48
2023-02-12T13:03:07.495Z,19.30
2023-02-12T13:06:02.772Z,21.42
2023-02-12T13:08:53.653Z,21.67
2023-02-12T13:14:20.528Z,22.52
2023-02-12T13:16:53.007Z,23.20
2023-02-12T13:19:44.793Z,23.10
2023-02-12T13:22:24.205Z,23.23
2023-02-12T13:25:03.435Z,23.50
2023-02-12T13:27:37.135Z,24.08
2023-02-12T13:30:13.207Z,20.95
2023-02-12T13:32:46.425Z,18.83
2023-02-12T13:35:20.539Z,18.60
2023-02-12T13:37:54.584Z,19.48
2023-02-12T13:40:25.897Z,17.95
2023-02-12T13:43:02.162Z,18.98
2023-02-12T13:45:43.387Z,22.67
2023-02-12T13:48:33.220Z,22.48
2023-02-12T13:51:11.538Z,24.17
2023-02-12T13:53:55.409Z,25.08
2023-02-12T13:56:39.052Z,21.58
2023-02-12T13:59:49.397Z,21.58
2023-02-12T14:02:46.418Z,21.27
2023-02-12T14:05:31.962Z,22.20
2023-02-12T14:08:05.391Z,19.35
2023-02-12T14:10:39.266Z,22.45
2023-02-12T14:13:21.932Z,24.23
2023-02-12T14:15:53.295Z,28.27
2023-02-12T14:18:34.757Z,28.75
2023-02-12T14:21:45.649Z,28.25
2023-02-12T14:27:29.232Z,29.42
2023-02-12T14:30:27.578Z,30.13
2023-02-12T14:33:31.224Z,33.42
2023-02-12T14:36:20.833Z,34.83
2023-02-12T14:39:02.632Z,35.95
2023-02-12T14:41:44.440Z,37.67
2023-02-12T14:44:49.112Z,38.13
2023-02-12T14:47:51.975Z,35.85
2023-02-12T14:50:30.127Z,33.47
2023-02-12T14:53:27.078Z,36.55
2023-02-12T14:55:57.054Z,35.28
2023-02-12T14:58:28.089Z,38.72
2023-02-12T15:00:58.794Z,39.08
2023-02-12T15:06:06.280Z,42.28
2023-02-12T15:08:44.912Z,39.00
2023-02-12T15:11:35.336Z,39.85
2023-02-12T15:14:08.712Z,43.80
2023-02-12T15:16:48.047Z,44.28
2023-02-12T15:19:34.834Z,44.75
2023-02-12T15:22:03.216Z,39.53
2023-02-12T15:24:31.630Z,47.25
2023-02-12T15:27:01.492Z,40.40
2023-02-12T15:29:36.472Z,42.90
2023-02-12T15:32:09.800Z,40.40
2023-02-12T15:34:41.811Z,43.00
2023-02-12T15:37:16.889Z,43.55
2023-02-12T15:39:48.070Z,42.15
2023-02-12T15:42:30.103Z,45.72
2023-02-12T15:45:22.068Z,41.97
2023-02-12T15:48:03.627Z,44.25
2023-02-12T15:50:34.166Z,45.60
2023-02-12T15:53:02.856Z,54.47
2023-02-12T15:55:39.178Z,46.00
2023-02-12T15:58:24.039Z,44.28
2023-02-12T16:00:54.756Z,40.28
2023-02-12T16:06:05.365Z,41.17
2023-02-12T16:08:35.723Z,44.22
2023-02-12T16:11:13.832Z,46.22
2023-02-12T16:13:47.555Z,55.17
2023-02-12T16:16:25.787Z,54.83
2023-02-12T16:19:19.830Z,52.67
2023-02-12T16:21:51.954Z,49.47
2023-02-12T16:24:29.857Z,54.15
2023-02-12T16:27:00.433Z,45.47
2023-02-12T16:29:31.638Z,50.55
2023-02-12T16:32:03.259Z,49.88
2023-02-12T16:34:37.133Z,47.53
2023-02-12T16:37:44.939Z,47.05
2023-02-12T16:40:31.542Z,45.70
2023-02-12T16:43:21.637Z,43.97
2023-02-12T16:45:50.649Z,46.90
2023-02-12T16:48:25.358Z,44.15
2023-02-12T16:50:58.541Z,52.08
2023-02-12T16:53:47.445Z,49.33
2023-02-12T16:56:21.032Z,48.63
2023-02-12T16:58:51.927Z,47.90
2023-02-12T17:01:25.347Z,45.13
2023-02-12T17:03:55.270Z,45.33
2023-02-12T17:06:27.857Z,46.30
2023-02-12T17:08:57.210Z,48.38
2023-02-12T17:11:28.101Z,45.78
2023-02-12T17:13:57.217Z,48.65
2023-02-12T17:16:30.780Z,46.38
2023-02-12T17:19:00.283Z,48.55
2023-02-12T17:21:37.812Z,48.45
2023-02-12T17:24:07.218Z,50.13
2023-02-12T17:26:35.531Z,48.65
2023-02-12T17:29:06.271Z,49.10
2023-02-12T17:34:03.094Z,47.97
2023-02-12T17:36:32.956Z,47.90
2023-02-12T17:39:02.092Z,43.20
2023-02-12T17:41:30.548Z,42.13
2023-02-12T17:43:58.948Z,42.83
2023-02-12T17:46:29.927Z,46.90
2023-02-12T17:51:27.134Z,45.50
2023-02-12T17:53:56.803Z,44.92
2023-02-12T17:56:26.549Z,44.15
2023-02-12T17:58:55.125Z,38.77
2023-02-12T18:01:25.286Z,46.40
2023-02-12T18:03:55.777Z,40.33
2023-02-12T18:08:54.234Z,44.60
2023-02-12T18:11:24.065Z,41.72
2023-02-12T18:13:54.355Z,45.92
2023-02-12T18:16:24.098Z,48.83
2023-02-12T18:18:52.422Z,47.45
2023-02-12T18:21:21.109Z,48.90
2023-02-12T18:23:49.554Z,46.55
2023-02-12T18:26:19.899Z,46.22
2023-02-12T18:28:50.134Z,43.45
2023-02-12T18:31:23.558Z,44.15
2023-02-12T18:33:51.960Z,46.67
2023-02-12T18:36:22.330Z,48.88
2023-02-12T18:38:52.885Z,46.33
2023-02-12T18:41:24.314Z,48.08
2023-02-12T18:43:54.784Z,61.70
2023-02-12T18:46:25.838Z,71.40
2023-02-12T18:48:54.843Z,49.80
2023-02-12T18:51:25.932Z,51.45
2023-02-12T18:53:56.414Z,54.42
2023-02-12T18:56:25.174Z,56.55
2023-02-12T18:58:58.568Z,52.78
2023-02-12T19:01:27.854Z,56.60
2023-02-12T19:03:58.959Z,53.30
2023-02-12T19:06:27.698Z,53.78
2023-02-12T19:08:57.136Z,53.03
2023-02-12T19:11:25.968Z,54.40
2023-02-12T19:13:56.173Z,54.10
2023-02-12T19:16:26.010Z,51.78
2023-02-12T19:18:59.987Z,53.47
2023-02-12T19:21:28.415Z,52.10
2023-02-12T19:23:58.202Z,54.15
2023-02-12T19:26:27.963Z,54.20
2023-02-12T19:28:58.502Z,51.90
2023-02-12T19:31:29.544Z,55.05
2023-02-12T19:34:00.937Z,53.25
2023-02-12T19:36:32.990Z,54.35
2023-02-12T19:39:01.471Z,56.00
2023-02-12T19:41:32.818Z,54.50
2023-02-12T19:44:03.164Z,54.45
2023-02-12T19:46:32.744Z,51.30
2023-02-12T19:49:03.237Z,44.67
2023-02-12T19:51:32.537Z,40.75
2023-02-12T19:54:04.151Z,49.22
2023-02-12T19:56:32.717Z,55.85
2023-02-12T19:59:03.003Z,57.38
2023-02-12T20:01:31.761Z,50.50
2023-02-12T20:04:00.611Z,50.25
2023-02-12T20:06:32.936Z,54.13
2023-02-12T20:09:01.292Z,51.67
2023-02-12T20:11:32.192Z,53.42
2023-02-12T20:14:04.095Z,50.08
2023-02-12T20:16:38.167Z,53.20
2023-02-12T20:19:11.386Z,57.15
2023-02-12T20:21:40.517Z,67.18
2023-02-12T20:24:09.490Z,70.38
2023-02-12T20:26:37.975Z,64.50
2023-02-12T20:29:07.946Z,62.55
2023-02-12T20:31:38.317Z,57.88
2023-02-12T20:34:10.149Z,52.58
2023-02-12T20:36:41.766Z,49.03
2023-02-12T20:39:13.528Z,46.78
2023-02-12T20:41:42.867Z,53.28
2023-02-12T20:44:15.788Z,51.67
2023-02-12T20:46:46.124Z,55.65
2023-02-12T20:49:16.241Z,56.50
2023-02-12T20:51:45.385Z,50.92
2023-02-12T20:54:13.848Z,48.75
2023-02-12T20:56:42.311Z,46.47
2023-02-12T20:59:12.723Z,49.92
2023-02-12T21:01:42.984Z,44.28
2023-02-12T21:04:13.328Z,48.13
2023-02-12T21:06:42.870Z,47.47
2023-02-12T21:09:13.164Z,45.28
2023-02-12T21:11:45.088Z,54.25
2023-02-12T21:14:24.576Z,52.15
2023-02-12T21:16:54.499Z,48.95
2023-02-12T21:19:23.283Z,49.80
2023-02-12T21:21:52.048Z,49.28
2023-02-12T21:24:23.441Z,45.72
2023-02-12T21:26:53.278Z,50.58
2023-02-12T21:29:26.471Z,48.83
2023-02-12T21:31:55.154Z,51.67
2023-02-12T21:34:25.019Z,46.38
2023-02-12T21:36:55.936Z,48.47
2023-02-12T21:39:27.768Z,44.00
2023-02-12T21:41:58.225Z,45.72
2023-02-12T21:44:28.384Z,44.05
2023-02-12T21:46:57.569Z,47.38
2023-02-12T21:49:27.767Z,52.17
2023-02-12T21:51:58.580Z,48.70
2023-02-12T21:54:27.370Z,50.10
2023-02-12T21:56:56.376Z,49.90
2023-02-12T21:59:26.473Z,48.13
2023-02-12T22:01:58.568Z,53.15
2023-02-12T22:04:27.921Z,51.72
2023-02-12T22:06:56.571Z,51.45
2023-02-12T22:09:25.063Z,48.35
2023-02-12T22:11:53.690Z,47.28
2023-02-12T22:14:23.298Z,48.90
2023-02-12T22:16:51.792Z,49.63
2023-02-12T22:19:21.579Z,48.17
2023-02-12T22:21:52.534Z,47.77
2023-02-12T22:24:21.764Z,47.88
2023-02-12T22:26:50.100Z,48.45
2023-02-12T22:29:18.910Z,46.28
2023-02-12T22:31:48.140Z,45.88
2023-02-12T22:34:19.634Z,50.55
2023-02-12T22:36:49.752Z,46.20
2023-02-12T22:39:18.615Z,47.53
2023-02-12T22:41:47.379Z,50.85
2023-02-12T22:44:18.047Z,49.35
2023-02-12T22:46:47.831Z,52.42
2023-02-12T22:49:16.919Z,47.40
2023-02-12T22:51:45.287Z,51.47
2023-02-12T22:54:17.883Z,51.42
2023-02-12T22:56:47.059Z,53.47
2023-02-12T22:59:15.374Z,56.63
2023-02-12T23:01:43.912Z,54.53
2023-02-12T23:04:16.702Z,55.45
2023-02-12T23:06:46.363Z,55.65
2023-02-12T23:09:19.001Z,57.83
2023-02-12T23:11:48.350Z,54.90
2023-02-12T23:14:16.675Z,56.10
2023-02-12T23:16:45.059Z,55.40
2023-02-12T23:19:13.941Z,65.05
2023-02-12T23:21:42.545Z,54.63
2023-02-12T23:24:16.184Z,56.53
2023-02-12T23:26:44.857Z,56.25
2023-02-12T23:29:14.524Z,55.10
2023-02-12T23:31:43.259Z,54.47
2023-02-12T23:34:11.628Z,58.08
2023-02-12T23:36:40.032Z,56.72
2023-02-12T23:39:09.578Z,56.53
2023-02-12T23:41:39.322Z,57.95
2023-02-12T23:44:07.938Z,57.93
2023-02-12T23:46:36.385Z,57.97
2023-02-12T23:49:05.494Z,57.95
2023-02-12T23:51:33.999Z,56.58
2023-02-12T23:54:02.460Z,56.17
2023-02-12T23:56:30.768Z,59.22
2023-02-12T23:59:00.526Z,59.55
